Terminal Aerodrome Forecast
Issued by NWS

Home | Current Version | Previous Version | Text Only | Print | Product List | Glossary On
Versions: 1 2 3 4 5 6 7 8 9 10 11 12 13 14 15 16
000
FTUS46 KLOX 290500
TAFSBP
TAF
KSBP 290525Z 2906/3006 VRB03KT P6SM OVC007
     FM291100 VRB03KT 4SM BR OVC004
     FM291500 VRB03KT 6SM BR BKN007
     FM291630 31008KT P6SM SCT250
     FM292000 31015G20KT P6SM SKC
     FM300400 31008KT P6SM SKC=

USA.gov is the U.S. government's official web portal to all federal, state and local government web resources and services.